createdAt,value
2017-07-28T00:01:50.644Z,97882.34
2017-07-28T00:04:18.095Z,97878.35
2017-07-28T00:06:45.564Z,97884.38
2017-07-28T00:09:13.009Z,97878.46
2017-07-28T00:11:40.477Z,97879.39
2017-07-28T00:14:07.961Z,97883.11
2017-07-28T00:16:35.405Z,97885.28
2017-07-28T00:19:02.849Z,97889.99
2017-07-28T00:21:30.322Z,97887.42
2017-07-28T00:23:57.762Z,97898.58
2017-07-28T00:26:25.543Z,97900.41
2017-07-28T00:28:52.984Z,97902.41
2017-07-28T00:31:20.720Z,97906.52
2017-07-28T00:33:48.185Z,97900.62
2017-07-28T00:36:15.635Z,97890.69
2017-07-28T00:38:43.081Z,97892.03
2017-07-28T00:41:10.546Z,97893.27
2017-07-28T00:43:37.995Z,97901.02
2017-07-28T00:46:05.445Z,97896.67
2017-07-28T00:48:33.306Z,97897.91
2017-07-28T00:51:00.776Z,97892.39
2017-07-28T00:53:28.213Z,97896.44
2017-07-28T00:55:55.685Z,97895.80
2017-07-28T00:58:23.134Z,97893.09
2017-07-28T01:00:50.604Z,97892.73
2017-07-28T01:03:18.046Z,97905.80
2017-07-28T01:05:45.494Z,97905.15
2017-07-28T01:08:12.953Z,97916.17
2017-07-28T01:10:40.395Z,97915.75
2017-07-28T01:13:08.191Z,97919.28
2017-07-28T01:15:35.636Z,97927.14
2017-07-28T01:18:03.076Z,97934.31
2017-07-28T01:20:30.547Z,97931.12
2017-07-28T01:22:58.017Z,97929.70
2017-07-28T01:25:25.463Z,97930.57
2017-07-28T01:27:52.938Z,97940.04
2017-07-28T01:30:20.383Z,97947.86
2017-07-28T01:32:47.831Z,97950.13
2017-07-28T01:35:15.296Z,97945.80
2017-07-28T01:37:42.746Z,97946.90
2017-07-28T01:40:10.221Z,97942.73
2017-07-28T01:42:37.673Z,97937.59
2017-07-28T01:45:05.141Z,97942.59
2017-07-28T01:47:32.592Z,97929.25
2017-07-28T01:50:00.036Z,97933.00
2017-07-28T01:52:27.692Z,97929.77
2017-07-28T01:54:55.347Z,97920.29
2017-07-28T01:57:22.781Z,97916.93
2017-07-28T01:59:50.228Z,97914.77
2017-07-28T02:02:17.717Z,97907.75
2017-07-28T02:04:45.161Z,97899.70
2017-07-28T02:07:12.609Z,97897.31
2017-07-28T02:09:40.073Z,97892.23
2017-07-28T02:12:07.601Z,97911.48
2017-07-28T02:14:35.077Z,97901.57
2017-07-28T02:17:02.854Z,97911.59
2017-07-28T02:19:30.337Z,97921.58
2017-07-28T02:21:57.790Z,97920.09
2017-07-28T02:24:25.238Z,97911.42
2017-07-28T02:26:52.705Z,97914.63
2017-07-28T02:29:20.165Z,97921.69
2017-07-28T02:31:47.640Z,97914.05
2017-07-28T02:34:15.081Z,97902.54
2017-07-28T02:36:42.529Z,97909.41
2017-07-28T02:39:10.001Z,97914.11
2017-07-28T02:41:37.457Z,97927.09
2017-07-28T02:44:05.145Z,97926.97
2017-07-28T02:46:32.590Z,97931.08
2017-07-28T02:49:00.041Z,97924.96
2017-07-28T02:51:27.510Z,97919.30
2017-07-28T02:53:54.963Z,97918.01
2017-07-28T02:56:22.431Z,97913.41
2017-07-28T02:58:49.884Z,97920.48
2017-07-28T03:01:17.469Z,97920.28
2017-07-28T03:03:44.904Z,97922.02
2017-07-28T03:06:12.352Z,97929.56
2017-07-28T03:08:39.825Z,97930.45
2017-07-28T03:11:07.293Z,97929.67
2017-07-28T03:13:34.741Z,97923.89
2017-07-28T03:16:02.208Z,97908.48
2017-07-28T03:18:29.641Z,97919.41
2017-07-28T03:20:57.105Z,97926.03
2017-07-28T03:23:24.719Z,97935.89
2017-07-28T03:25:52.169Z,97950.95
2017-07-28T03:28:19.621Z,97950.11
2017-07-28T03:30:47.091Z,97951.33
2017-07-28T03:33:14.633Z,97960.32
2017-07-28T03:35:42.080Z,97960.68
2017-07-28T03:38:09.549Z,97961.00
2017-07-28T03:40:36.992Z,97961.70
2017-07-28T03:43:04.437Z,97954.67
2017-07-28T03:45:31.914Z,97954.20
2017-07-28T03:47:59.368Z,97952.84
2017-07-28T03:50:26.829Z,97949.98
2017-07-28T03:52:54.296Z,97966.23
2017-07-28T03:55:21.737Z,97970.38
2017-07-28T03:57:49.200Z,97965.47
2017-07-28T04:00:16.661Z,97962.20
2017-07-28T04:02:44.134Z,97962.70
2017-07-28T04:05:11.584Z,97978.38
2017-07-28T04:07:39.071Z,98004.30
2017-07-28T04:10:06.514Z,97995.72
2017-07-28T04:12:33.964Z,98003.38
2017-07-28T04:15:01.765Z,98001.38
2017-07-28T04:17:29.209Z,97992.42
2017-07-28T04:19:56.654Z,97999.48
2017-07-28T04:22:24.143Z,98003.30
2017-07-28T04:24:51.587Z,98005.19
2017-07-28T04:27:19.054Z,98010.28
2017-07-28T04:29:46.504Z,98017.73
2017-07-28T04:32:13.973Z,98018.49
2017-07-28T04:34:41.421Z,98021.08
2017-07-28T04:37:08.866Z,98020.66
2017-07-28T04:39:36.346Z,98015.26
2017-07-28T04:42:03.795Z,98015.84
2017-07-28T04:44:31.257Z,98008.16
2017-07-28T04:46:58.723Z,98006.56
2017-07-28T04:49:26.192Z,98004.98
2017-07-28T04:51:53.636Z,98009.44
2017-07-28T04:54:21.084Z,98012.22
2017-07-28T04:56:48.550Z,98008.36
2017-07-28T04:59:16.013Z,98009.63
2017-07-28T05:01:43.465Z,98017.27
2017-07-28T05:04:10.930Z,98015.12
2017-07-28T05:06:38.381Z,98023.56
2017-07-28T05:09:05.850Z,98024.92
2017-07-28T05:11:33.303Z,98022.14
2017-07-28T05:14:00.784Z,98017.59
2017-07-28T05:16:28.236Z,98016.59
2017-07-28T05:18:55.681Z,98015.97
2017-07-28T05:21:23.150Z,98014.61
2017-07-28T05:23:50.595Z,98022.92
2017-07-28T05:26:18.033Z,98020.59
2017-07-28T05:28:45.518Z,98030.59
2017-07-28T05:31:12.970Z,98037.19
2017-07-28T05:33:40.420Z,98038.80
2017-07-28T05:36:07.902Z,98031.30
2017-07-28T05:38:35.345Z,98012.84
2017-07-28T05:41:02.792Z,98027.16
2017-07-28T05:43:30.265Z,98026.63
2017-07-28T05:45:57.716Z,98036.81
2017-07-28T05:48:25.329Z,98037.84
2017-07-28T05:50:52.788Z,98040.93
2017-07-28T05:53:20.230Z,98039.58
2017-07-28T05:55:47.700Z,98042.13
2017-07-28T05:58:15.146Z,98043.34
2017-07-28T06:00:42.621Z,98039.34
2017-07-28T06:03:10.092Z,98044.42
2017-07-28T06:05:37.556Z,98044.49
2017-07-28T06:08:05.033Z,98045.51
2017-07-28T06:10:32.476Z,98055.59
2017-07-28T06:12:59.921Z,98050.72
2017-07-28T06:15:27.393Z,98055.89
2017-07-28T06:17:54.841Z,98050.83
2017-07-28T06:20:22.308Z,98057.72
2017-07-28T06:22:49.744Z,98061.56
2017-07-28T06:25:17.215Z,98073.59
2017-07-28T06:27:44.683Z,98075.15
2017-07-28T06:30:12.127Z,98072.52
2017-07-28T06:32:39.591Z,98075.80
2017-07-28T06:35:07.298Z,98085.02
2017-07-28T06:37:34.747Z,98083.28
2017-07-28T06:40:02.192Z,98087.33
2017-07-28T06:42:29.657Z,98083.47
2017-07-28T06:44:57.095Z,98084.66
2017-07-28T06:47:24.538Z,98085.33
2017-07-28T06:49:52.009Z,98089.38
2017-07-28T06:52:19.448Z,98089.98
2017-07-28T06:54:46.923Z,98083.81
2017-07-28T06:57:14.759Z,98082.73
2017-07-28T06:59:42.200Z,98079.46
2017-07-28T07:02:09.649Z,98079.68
2017-07-28T07:07:13.776Z,98081.99
2017-07-28T07:09:41.245Z,98083.29
2017-07-28T07:12:08.696Z,98087.10
2017-07-28T07:14:36.267Z,98085.28
2017-07-28T07:17:03.945Z,98082.05
2017-07-28T07:19:31.392Z,98079.94
2017-07-28T07:21:58.848Z,98086.78
2017-07-28T07:24:26.324Z,98078.92
2017-07-28T07:26:53.772Z,98092.34
2017-07-28T07:29:21.224Z,98098.98
2017-07-28T07:31:48.694Z,98105.38
2017-07-28T07:34:16.144Z,98093.86
2017-07-28T07:36:43.613Z,98103.67
2017-07-28T07:39:11.057Z,98095.52
2017-07-28T07:41:38.849Z,98096.86
2017-07-28T07:44:06.289Z,98094.36
2017-07-28T07:46:33.734Z,98095.05
2017-07-28T07:49:01.224Z,98097.61
2017-07-28T07:51:28.661Z,98091.46
2017-07-28T07:53:56.106Z,98088.52
2017-07-28T07:56:23.582Z,98088.69
2017-07-28T07:58:51.025Z,98077.52
2017-07-28T08:01:18.489Z,98081.88
2017-07-28T08:03:45.952Z,98094.77
2017-07-28T08:06:13.403Z,98081.77
2017-07-28T08:08:40.868Z,98085.42
2017-07-28T08:11:08.318Z,98083.17
2017-07-28T08:13:35.793Z,98089.28
2017-07-28T08:16:03.232Z,98086.22
2017-07-28T08:18:30.711Z,98081.83
2017-07-28T08:20:58.160Z,98085.85
2017-07-28T08:23:25.605Z,98088.48
2017-07-28T08:25:53.076Z,98089.79
2017-07-28T08:28:20.561Z,98077.58
2017-07-28T08:30:48.001Z,98094.11
2017-07-28T08:33:15.446Z,98089.75
2017-07-28T08:35:42.916Z,98092.34
2017-07-28T08:38:10.376Z,98090.29
2017-07-28T08:40:37.845Z,98085.29
2017-07-28T08:43:05.324Z,98094.22
2017-07-28T08:45:32.894Z,98089.56
2017-07-28T08:48:00.342Z,98091.84
2017-07-28T08:50:27.787Z,98088.95
2017-07-28T08:52:55.253Z,98094.03
2017-07-28T08:55:22.700Z,98097.61
2017-07-28T08:57:50.161Z,98100.11
2017-07-28T09:00:17.613Z,98105.08
2017-07-28T09:02:45.078Z,98099.31
2017-07-28T09:05:12.558Z,98101.78
2017-07-28T09:07:40.032Z,98099.39
2017-07-28T09:10:07.482Z,98100.23
2017-07-28T09:12:34.978Z,98094.92
2017-07-28T09:15:02.439Z,98096.24
2017-07-28T09:17:29.906Z,98106.84
2017-07-28T09:19:57.374Z,98100.55
2017-07-28T09:22:24.836Z,98098.00
2017-07-28T09:24:52.338Z,98088.37
2017-07-28T09:27:19.787Z,98102.45
2017-07-28T09:29:47.250Z,98096.59
2017-07-28T09:32:14.698Z,98098.44
2017-07-28T09:34:42.313Z,98096.21
2017-07-28T09:37:09.788Z,98087.77
2017-07-28T09:39:37.232Z,98097.99
2017-07-28T09:42:04.704Z,98100.97
2017-07-28T09:44:32.146Z,98094.45
2017-07-28T09:46:59.620Z,98095.37
2017-07-28T09:49:27.133Z,98098.06
2017-07-28T09:51:54.587Z,98101.91
2017-07-28T09:54:22.049Z,98091.10
2017-07-28T09:56:49.515Z,98097.05
2017-07-28T09:59:17.186Z,98091.88
2017-07-28T10:01:44.633Z,98095.09
2017-07-28T10:04:12.098Z,98102.98
2017-07-28T10:06:39.573Z,98093.36
2017-07-28T10:09:07.026Z,98084.52
2017-07-28T10:11:34.506Z,98090.75
2017-07-28T10:14:01.974Z,98096.00
2017-07-28T10:16:29.421Z,98093.27
2017-07-28T10:18:56.883Z,98096.17
2017-07-28T10:21:24.385Z,98104.50
2017-07-28T10:23:51.840Z,98103.14
2017-07-28T10:26:19.324Z,98089.52
2017-07-28T10:28:46.770Z,98085.63
2017-07-28T10:31:14.209Z,98091.72
2017-07-28T10:33:41.686Z,98092.12
2017-07-28T10:36:09.153Z,98099.27
2017-07-28T10:38:36.607Z,98099.34
2017-07-28T10:41:04.362Z,98096.66
2017-07-28T10:43:31.853Z,98102.09
2017-07-28T10:45:59.298Z,98097.13
2017-07-28T10:48:26.760Z,98105.98
2017-07-28T10:50:54.231Z,98093.20
2017-07-28T10:53:21.721Z,98088.47
2017-07-28T10:55:49.180Z,98106.73
2017-07-28T10:58:16.643Z,98078.94
2017-07-28T11:00:44.081Z,98092.39
2017-07-28T11:03:11.545Z,98086.19
2017-07-28T11:05:38.993Z,98084.62
2017-07-28T11:08:06.485Z,98088.99
2017-07-28T11:10:33.926Z,98081.02
2017-07-28T11:13:01.404Z,98085.47
2017-07-28T11:15:28.848Z,98078.52
2017-07-28T11:17:56.298Z,98078.70
2017-07-28T11:20:23.774Z,98083.77
2017-07-28T11:22:51.217Z,98104.19
2017-07-28T11:25:18.681Z,98103.34
2017-07-28T11:27:46.133Z,98095.59
2017-07-28T11:30:13.593Z,98099.55
2017-07-28T11:32:41.060Z,98117.92
2017-07-28T11:35:08.518Z,98121.45
2017-07-28T11:37:35.981Z,98130.00
2017-07-28T11:40:03.449Z,98119.05
2017-07-28T11:42:30.925Z,98124.38
2017-07-28T11:44:58.384Z,98110.21
2017-07-28T11:47:25.864Z,98111.22
2017-07-28T11:49:53.329Z,98118.14
2017-07-28T11:52:20.798Z,98121.06
2017-07-28T11:54:48.249Z,98127.61
2017-07-28T11:57:15.711Z,98127.98
2017-07-28T11:59:43.185Z,98160.05
2017-07-28T12:02:10.648Z,98152.46
2017-07-28T12:04:38.114Z,98149.55
2017-07-28T12:07:05.597Z,98150.73
2017-07-28T12:09:33.047Z,98143.22
2017-07-28T12:12:00.765Z,98169.49
2017-07-28T12:14:28.208Z,98155.63
2017-07-28T12:16:55.649Z,98158.02
2017-07-28T12:19:23.133Z,98174.25
2017-07-28T12:21:50.597Z,98168.46
2017-07-28T12:24:18.048Z,98155.94
2017-07-28T12:26:45.509Z,98164.68
2017-07-28T12:29:12.956Z,98185.58
2017-07-28T12:31:40.429Z,98175.29
2017-07-28T12:34:07.877Z,98177.97
2017-07-28T12:36:35.344Z,98175.38
2017-07-28T12:39:02.823Z,98178.87
2017-07-28T12:41:30.265Z,98188.09
2017-07-28T12:43:57.732Z,98176.44
2017-07-28T12:46:25.192Z,98184.80
2017-07-28T12:48:52.648Z,98169.38
2017-07-28T12:51:20.118Z,98173.61
2017-07-28T12:53:47.584Z,98167.11
2017-07-28T12:56:15.057Z,98177.26
2017-07-28T12:58:42.507Z,98182.96
2017-07-28T13:01:10.164Z,98179.23
2017-07-28T13:03:37.618Z,98173.89
2017-07-28T13:06:06.309Z,98181.58
2017-07-28T13:08:33.782Z,98176.44
2017-07-28T13:11:01.224Z,98186.52
2017-07-28T13:13:28.749Z,98176.94
2017-07-28T13:15:56.193Z,98184.23
2017-07-28T13:18:23.672Z,98190.75
2017-07-28T13:20:51.121Z,98203.34
2017-07-28T13:23:18.598Z,98212.62
2017-07-28T13:25:46.078Z,98211.25
2017-07-28T13:28:13.539Z,98212.22
2017-07-28T13:30:41.032Z,98223.98
2017-07-28T13:33:08.478Z,98216.41
2017-07-28T13:35:35.997Z,98219.67
2017-07-28T13:38:03.461Z,98222.02
2017-07-28T13:40:30.956Z,98223.69
2017-07-28T13:42:58.397Z,98216.86
2017-07-28T13:45:25.841Z,98233.45
2017-07-28T13:47:53.311Z,98228.97
2017-07-28T13:50:20.758Z,98221.87
2017-07-28T13:52:48.235Z,98223.98
2017-07-28T13:55:15.677Z,98234.97
2017-07-28T13:57:43.149Z,98237.16
2017-07-28T14:00:10.596Z,98240.47
2017-07-28T14:02:38.057Z,98240.97
2017-07-28T14:05:06.298Z,98241.03
2017-07-28T14:07:34.925Z,98244.68
2017-07-28T14:10:02.524Z,98250.22
2017-07-28T14:12:29.969Z,98260.63
2017-07-28T14:14:57.652Z,98254.84
2017-07-28T14:17:25.856Z,98257.95
2017-07-28T14:19:53.687Z,98245.84
2017-07-28T14:22:21.282Z,98255.70
2017-07-28T14:24:48.724Z,98251.47
2017-07-28T14:27:16.966Z,98257.36
2017-07-28T14:29:44.576Z,98260.40
2017-07-28T14:32:12.636Z,98254.85
2017-07-28T14:34:40.079Z,98257.19
2017-07-28T14:37:08.046Z,98261.25
2017-07-28T14:39:36.233Z,98266.03
2017-07-28T14:42:03.779Z,98260.92
2017-07-28T14:44:31.475Z,98269.49
2017-07-28T14:46:59.613Z,98270.70
2017-07-28T14:49:27.063Z,98268.65
2017-07-28T14:51:54.601Z,98260.91
2017-07-28T14:54:22.048Z,98277.50
2017-07-28T14:56:50.019Z,98263.80
2017-07-28T14:59:17.484Z,98266.34
2017-07-28T15:01:44.956Z,98267.83
2017-07-28T15:04:12.504Z,98279.17
2017-07-28T15:06:40.720Z,98281.77
2017-07-28T15:09:08.173Z,98274.30
2017-07-28T15:11:35.661Z,98264.81
2017-07-28T15:14:03.168Z,98261.84
2017-07-28T15:16:30.656Z,98269.08
2017-07-28T15:18:58.129Z,98271.36
2017-07-28T15:21:25.584Z,98267.55
2017-07-28T15:23:53.048Z,98274.09
2017-07-28T15:26:20.531Z,98285.02
2017-07-28T15:28:48.529Z,98285.10
2017-07-28T15:31:16.317Z,98284.02
2017-07-28T15:33:43.827Z,98288.71
2017-07-28T15:36:11.272Z,98284.78
2017-07-28T15:38:38.776Z,98281.45
2017-07-28T15:41:06.245Z,98278.40
2017-07-28T15:43:33.891Z,98276.96
2017-07-28T15:46:01.349Z,98280.69
2017-07-28T15:48:29.292Z,98282.58
2017-07-28T15:50:57.532Z,98281.98
2017-07-28T15:53:24.978Z,98285.01
2017-07-28T15:55:52.436Z,98288.86
2017-07-28T15:58:19.900Z,98281.13
2017-07-28T16:00:47.374Z,98281.29
2017-07-28T16:03:14.828Z,98274.39
2017-07-28T16:05:42.829Z,98282.17
2017-07-28T16:08:10.297Z,98281.98
2017-07-28T16:10:37.745Z,98279.72
2017-07-28T16:13:05.309Z,98280.13
2017-07-28T16:15:33.025Z,98273.09
2017-07-28T16:18:00.630Z,98277.14
2017-07-28T16:20:28.074Z,98273.96
2017-07-28T16:22:55.525Z,98284.22
2017-07-28T16:25:22.992Z,98283.84
2017-07-28T16:27:50.432Z,98281.94
2017-07-28T16:30:18.108Z,98295.47
2017-07-28T16:32:45.856Z,98308.80
2017-07-28T16:35:13.325Z,98292.02
2017-07-28T16:37:40.781Z,98290.41
2017-07-28T16:40:08.246Z,98289.84
2017-07-28T16:42:35.693Z,98298.10
2017-07-28T16:45:03.225Z,98303.20
2017-07-28T16:47:30.693Z,98299.77
2017-07-28T16:49:58.143Z,98294.69
2017-07-28T16:52:25.600Z,98296.56
2017-07-28T16:54:53.075Z,98303.75
2017-07-28T16:57:20.522Z,98302.58
2017-07-28T16:59:48.236Z,98298.05
2017-07-28T17:02:15.701Z,98299.64
2017-07-28T17:04:43.161Z,98303.91
2017-07-28T17:07:10.643Z,98307.75
2017-07-28T17:09:38.107Z,98305.59
2017-07-28T17:12:05.545Z,98311.38
2017-07-28T17:14:33.008Z,98300.16
2017-07-28T17:17:01.168Z,98305.25
2017-07-28T17:19:29.388Z,98308.34
2017-07-28T17:21:56.841Z,98308.71
2017-07-28T17:24:24.662Z,98315.11
2017-07-28T17:26:52.101Z,98310.52
2017-07-28T17:29:20.002Z,98312.36
2017-07-28T17:31:47.468Z,98318.28
2017-07-28T17:34:14.909Z,98323.73
2017-07-28T17:36:42.587Z,98314.56
2017-07-28T17:39:10.912Z,98312.14
2017-07-28T17:41:38.369Z,98315.28
2017-07-28T17:44:06.182Z,98316.56
2017-07-28T17:46:33.626Z,98313.47
2017-07-28T17:49:01.081Z,98327.32
2017-07-28T17:51:28.545Z,98322.97
2017-07-28T17:53:56.025Z,98327.89
2017-07-28T17:56:23.496Z,98328.38
2017-07-28T17:58:51.089Z,98335.64
2017-07-28T18:01:18.542Z,98336.48
2017-07-28T18:03:45.986Z,98327.64
2017-07-28T18:06:13.457Z,98333.86
2017-07-28T18:08:40.895Z,98337.39
2017-07-28T18:11:08.354Z,98344.66
2017-07-28T18:13:35.833Z,98351.23
2017-07-28T18:16:03.288Z,98361.91
2017-07-28T18:18:30.745Z,98363.86
2017-07-28T18:20:58.212Z,98365.86
2017-07-28T18:23:25.680Z,98368.94
2017-07-28T18:25:53.159Z,98372.98
2017-07-28T18:28:20.602Z,98375.76
2017-07-28T18:30:48.557Z,98376.09
2017-07-28T18:33:16.001Z,98374.56
2017-07-28T18:35:43.469Z,98379.64
2017-07-28T18:38:10.948Z,98377.92
2017-07-28T18:40:38.389Z,98379.93
2017-07-28T18:43:05.869Z,98383.30
2017-07-28T18:45:33.321Z,98390.72
2017-07-28T18:48:00.765Z,98391.34
2017-07-28T18:50:28.228Z,98396.80
2017-07-28T18:52:55.673Z,98402.07
2017-07-28T18:55:23.188Z,98415.34
2017-07-28T18:57:50.901Z,98419.59
2017-07-28T19:00:18.359Z,98424.08
2017-07-28T19:02:45.804Z,98422.69
2017-07-28T19:05:13.268Z,98421.77
2017-07-28T19:07:40.724Z,98429.77
2017-07-28T19:10:08.181Z,98438.22
2017-07-28T19:12:35.978Z,98440.89
2017-07-28T19:15:03.421Z,98440.16
2017-07-28T19:17:30.882Z,98451.00
2017-07-28T19:19:58.349Z,98453.56
2017-07-28T19:22:25.833Z,98454.77
2017-07-28T19:24:53.280Z,98454.64
2017-07-28T19:27:20.764Z,98458.07
2017-07-28T19:29:48.208Z,98472.73
2017-07-28T19:32:15.677Z,98474.73
2017-07-28T19:34:43.122Z,98483.89
2017-07-28T19:37:10.597Z,98482.33
2017-07-28T19:39:38.044Z,98480.48
2017-07-28T19:42:05.536Z,98485.33
2017-07-28T19:44:32.985Z,98486.81
2017-07-28T19:47:00.438Z,98486.35
2017-07-28T19:49:28.173Z,98484.86
2017-07-28T19:51:55.625Z,98487.55
2017-07-28T19:54:23.072Z,98481.41
2017-07-28T19:56:51.185Z,98487.94
2017-07-28T19:59:18.631Z,98481.78
2017-07-28T20:01:46.077Z,98488.23
2017-07-28T20:04:13.545Z,98487.79
2017-07-28T20:06:41.018Z,98490.94
2017-07-28T20:09:08.544Z,98499.28
2017-07-28T20:14:12.909Z,98502.58
2017-07-28T20:16:40.373Z,98502.84
2017-07-28T20:19:07.904Z,98510.88
2017-07-28T20:21:35.353Z,98511.48
2017-07-28T20:24:03.054Z,98518.91
2017-07-28T20:26:30.504Z,98516.05
2017-07-28T20:28:57.955Z,98526.81
2017-07-28T20:31:25.751Z,98523.14
2017-07-28T20:33:53.192Z,98523.80
2017-07-28T20:36:20.644Z,98516.95
2017-07-28T20:38:48.982Z,98518.03
2017-07-28T20:41:16.439Z,98516.53
2017-07-28T20:43:43.921Z,98520.78
2017-07-28T20:46:11.376Z,98526.09
2017-07-28T20:48:38.864Z,98532.13
2017-07-28T20:51:06.350Z,98526.05
2017-07-28T20:53:33.916Z,98526.04
2017-07-28T20:56:01.406Z,98526.59
2017-07-28T20:58:28.882Z,98532.32
2017-07-28T21:00:56.354Z,98537.59
2017-07-28T21:03:23.817Z,98534.08
2017-07-28T21:05:51.290Z,98531.13
2017-07-28T21:08:18.749Z,98538.80
2017-07-28T21:10:46.227Z,98538.24
2017-07-28T21:13:13.669Z,98541.95
2017-07-28T21:15:41.153Z,98539.20
2017-07-28T21:18:08.621Z,98538.41
2017-07-28T21:20:36.077Z,98540.02
2017-07-28T21:23:03.944Z,98547.97
2017-07-28T21:25:31.395Z,98541.01
2017-07-28T21:27:58.840Z,98547.88
2017-07-28T21:30:26.326Z,98542.64
2017-07-28T21:32:53.776Z,98544.33
2017-07-28T21:35:21.245Z,98543.70
2017-07-28T21:37:48.688Z,98549.41
2017-07-28T21:40:16.141Z,98551.48
2017-07-28T21:42:43.928Z,98550.98
2017-07-28T21:45:11.385Z,98546.43
2017-07-28T21:47:38.849Z,98545.09
2017-07-28T21:50:06.703Z,98548.00
2017-07-28T21:52:34.298Z,98550.05
2017-07-28T21:55:01.954Z,98550.78
2017-07-28T21:57:29.452Z,98562.48
2017-07-28T21:59:56.901Z,98555.91
2017-07-28T22:02:24.551Z,98557.22
2017-07-28T22:04:52.042Z,98557.14
2017-07-28T22:07:19.500Z,98553.28
2017-07-28T22:09:46.996Z,98561.23
2017-07-28T22:12:14.491Z,98554.98
2017-07-28T22:14:41.968Z,98567.09
2017-07-28T22:17:09.459Z,98570.31
2017-07-28T22:19:37.376Z,98573.03
2017-07-28T22:22:04.852Z,98574.06
2017-07-28T22:24:32.302Z,98572.19
2017-07-28T22:26:59.794Z,98567.81
2017-07-28T22:29:27.277Z,98558.67
2017-07-28T22:31:55.141Z,98566.69
2017-07-28T22:34:22.589Z,98568.96
2017-07-28T22:36:50.125Z,98572.94
2017-07-28T22:39:17.603Z,98575.10
2017-07-28T22:41:45.041Z,98579.08
2017-07-28T22:44:12.520Z,98578.28
2017-07-28T22:46:39.973Z,98579.12
2017-07-28T22:49:09.041Z,98577.56
2017-07-28T22:51:36.585Z,98580.31
2017-07-28T22:54:04.576Z,98579.60
2017-07-28T22:56:32.044Z,98577.38
2017-07-28T22:58:59.497Z,98573.89
2017-07-28T23:01:27.094Z,98567.28
2017-07-28T23:03:54.541Z,98570.30
2017-07-28T23:06:21.996Z,98574.59
2017-07-28T23:08:49.477Z,98574.69
2017-07-28T23:11:17.032Z,98576.95
2017-07-28T23:13:44.525Z,98574.96
2017-07-28T23:16:12.012Z,98573.16
2017-07-28T23:18:39.485Z,98575.63
2017-07-28T23:21:06.939Z,98572.33
2017-07-28T23:23:34.407Z,98573.84
2017-07-28T23:26:01.885Z,98574.97
2017-07-28T23:28:29.621Z,98576.88
2017-07-28T23:30:57.065Z,98571.59
2017-07-28T23:33:24.517Z,98571.45
2017-07-28T23:35:51.989Z,98569.72
2017-07-28T23:38:19.504Z,98566.83
2017-07-28T23:40:46.971Z,98560.64
2017-07-28T23:43:14.433Z,98565.42
2017-07-28T23:45:41.914Z,98560.48
2017-07-28T23:48:09.362Z,98562.08
2017-07-28T23:50:36.884Z,98562.41
2017-07-28T23:53:04.370Z,98558.21
2017-07-28T23:55:31.837Z,98557.69
2017-07-28T23:57:59.847Z,98557.49
